sensor_id;sensor_type;location;lat;lon;timestamp;P1;durP1;ratioP1;P2;durP2;ratioP2
75441;SDS011;64019;48.312;14.226;2024-03-06T00:00:57;25.07;;;9.07;;
75441;SDS011;64019;48.312;14.226;2024-03-06T00:03:23;29.17;;;10.40;;
75441;SDS011;64019;48.312;14.226;2024-03-06T00:05:49;23.37;;;9.43;;
75441;SDS011;64019;48.312;14.226;2024-03-06T00:08:14;29.27;;;10.87;;
75441;SDS011;64019;48.312;14.226;2024-03-06T00:10:40;30.57;;;10.83;;
75441;SDS011;64019;48.312;14.226;2024-03-06T00:13:07;27.00;;;10.07;;
75441;SDS011;64019;48.312;14.226;2024-03-06T00:15:33;26.77;;;10.73;;
75441;SDS011;64019;48.312;14.226;2024-03-06T00:17:59;25.60;;;8.90;;
75441;SDS011;64019;48.312;14.226;2024-03-06T00:20:26;22.87;;;9.93;;
75441;SDS011;64019;48.312;14.226;2024-03-06T00:22:52;27.80;;;9.90;;
75441;SDS011;64019;48.312;14.226;2024-03-06T00:25:17;23.63;;;9.60;;
75441;SDS011;64019;48.312;14.226;2024-03-06T00:27:43;24.27;;;10.87;;
75441;SDS011;64019;48.312;14.226;2024-03-06T00:30:09;24.10;;;9.60;;
75441;SDS011;64019;48.312;14.226;2024-03-06T00:32:35;27.17;;;9.90;;
75441;SDS011;64019;48.312;14.226;2024-03-06T00:35:01;21.73;;;8.47;;
75441;SDS011;64019;48.312;14.226;2024-03-06T00:37:28;29.93;;;10.37;;
75441;SDS011;64019;48.312;14.226;2024-03-06T00:39:55;30.30;;;9.37;;
75441;SDS011;64019;48.312;14.226;2024-03-06T00:42:20;25.70;;;9.47;;
75441;SDS011;64019;48.312;14.226;2024-03-06T00:44:46;28.17;;;10.10;;
75441;SDS011;64019;48.312;14.226;2024-03-06T00:47:12;29.67;;;9.63;;
75441;SDS011;64019;48.312;14.226;2024-03-06T00:49:38;30.73;;;10.33;;
75441;SDS011;64019;48.312;14.226;2024-03-06T00:52:04;25.70;;;9.60;;
75441;SDS011;64019;48.312;14.226;2024-03-06T00:54:30;24.17;;;9.70;;
75441;SDS011;64019;48.312;14.226;2024-03-06T00:56:55;24.03;;;10.33;;
75441;SDS011;64019;48.312;14.226;2024-03-06T00:59:22;30.50;;;10.77;;
75441;SDS011;64019;48.312;14.226;2024-03-06T01:01:48;21.10;;;9.03;;
75441;SDS011;64019;48.312;14.226;2024-03-06T01:04:13;25.33;;;9.87;;
75441;SDS011;64019;48.312;14.226;2024-03-06T01:06:39;21.00;;;9.00;;
75441;SDS011;64019;48.312;14.226;2024-03-06T01:09:05;24.93;;;8.77;;
75441;SDS011;64019;48.312;14.226;2024-03-06T01:11:31;21.63;;;8.73;;
75441;SDS011;64019;48.312;14.226;2024-03-06T01:13:56;24.50;;;9.73;;
75441;SDS011;64019;48.312;14.226;2024-03-06T01:16:22;23.43;;;9.97;;
75441;SDS011;64019;48.312;14.226;2024-03-06T01:18:48;24.53;;;9.63;;
75441;SDS011;64019;48.312;14.226;2024-03-06T01:21:13;26.93;;;9.13;;
75441;SDS011;64019;48.312;14.226;2024-03-06T01:23:40;28.03;;;10.07;;
75441;SDS011;64019;48.312;14.226;2024-03-06T01:26:05;26.20;;;10.30;;
75441;SDS011;64019;48.312;14.226;2024-03-06T01:28:31;25.00;;;8.80;;
75441;SDS011;64019;48.312;14.226;2024-03-06T01:30:57;23.67;;;9.60;;
75441;SDS011;64019;48.312;14.226;2024-03-06T01:33:23;24.10;;;9.90;;
75441;SDS011;64019;48.312;14.226;2024-03-06T01:35:49;26.27;;;9.87;;
75441;SDS011;64019;48.312;14.226;2024-03-06T01:38:15;22.70;;;10.13;;
75441;SDS011;64019;48.312;14.226;2024-03-06T01:40:44;29.57;;;10.67;;
75441;SDS011;64019;48.312;14.226;2024-03-06T01:43:17;20.03;;;9.17;;
75441;SDS011;64019;48.312;14.226;2024-03-06T01:45:45;23.50;;;9.30;;
75441;SDS011;64019;48.312;14.226;2024-03-06T01:48:12;24.13;;;10.47;;
75441;SDS011;64019;48.312;14.226;2024-03-06T01:50:38;29.97;;;9.30;;
75441;SDS011;64019;48.312;14.226;2024-03-06T01:53:03;29.70;;;9.70;;
75441;SDS011;64019;48.312;14.226;2024-03-06T01:55:29;26.10;;;9.97;;
75441;SDS011;64019;48.312;14.226;2024-03-06T01:57:55;28.70;;;9.93;;
75441;SDS011;64019;48.312;14.226;2024-03-06T02:00:21;23.27;;;9.73;;
75441;SDS011;64019;48.312;14.226;2024-03-06T02:02:47;22.13;;;9.47;;
75441;SDS011;64019;48.312;14.226;2024-03-06T02:05:13;21.03;;;8.57;;
75441;SDS011;64019;48.312;14.226;2024-03-06T02:07:39;31.67;;;9.60;;
75441;SDS011;64019;48.312;14.226;2024-03-06T02:10:07;25.13;;;9.33;;
75441;SDS011;64019;48.312;14.226;2024-03-06T02:12:35;21.50;;;9.23;;
75441;SDS011;64019;48.312;14.226;2024-03-06T02:15:01;20.77;;;9.20;;
75441;SDS011;64019;48.312;14.226;2024-03-06T02:17:28;23.97;;;9.60;;
75441;SDS011;64019;48.312;14.226;2024-03-06T02:19:55;20.33;;;8.97;;
75441;SDS011;64019;48.312;14.226;2024-03-06T02:22:23;20.47;;;8.63;;
75441;SDS011;64019;48.312;14.226;2024-03-06T02:24:49;20.67;;;7.97;;
75441;SDS011;64019;48.312;14.226;2024-03-06T02:27:15;24.77;;;8.50;;
75441;SDS011;64019;48.312;14.226;2024-03-06T02:29:41;21.27;;;8.30;;
75441;SDS011;64019;48.312;14.226;2024-03-06T02:32:08;23.30;;;8.67;;
75441;SDS011;64019;48.312;14.226;2024-03-06T02:34:37;25.53;;;8.97;;
75441;SDS011;64019;48.312;14.226;2024-03-06T02:37:03;19.97;;;8.50;;
75441;SDS011;64019;48.312;14.226;2024-03-06T02:39:28;21.43;;;8.03;;
75441;SDS011;64019;48.312;14.226;2024-03-06T02:41:54;21.30;;;8.20;;
75441;SDS011;64019;48.312;14.226;2024-03-06T02:44:20;16.60;;;8.03;;
75441;SDS011;64019;48.312;14.226;2024-03-06T02:46:46;23.20;;;8.50;;
75441;SDS011;64019;48.312;14.226;2024-03-06T02:49:13;25.27;;;9.17;;
75441;SDS011;64019;48.312;14.226;2024-03-06T02:51:40;24.17;;;9.27;;
75441;SDS011;64019;48.312;14.226;2024-03-06T02:54:05;19.93;;;7.83;;
75441;SDS011;64019;48.312;14.226;2024-03-06T02:56:31;19.63;;;8.30;;
75441;SDS011;64019;48.312;14.226;2024-03-06T02:58:57;23.60;;;8.10;;
75441;SDS011;64019;48.312;14.226;2024-03-06T03:01:22;21.17;;;7.77;;
75441;SDS011;64019;48.312;14.226;2024-03-06T03:03:49;20.73;;;8.23;;
75441;SDS011;64019;48.312;14.226;2024-03-06T03:06:16;20.37;;;8.30;;
75441;SDS011;64019;48.312;14.226;2024-03-06T03:08:42;26.70;;;8.73;;
75441;SDS011;64019;48.312;14.226;2024-03-06T03:11:07;23.30;;;7.97;;
75441;SDS011;64019;48.312;14.226;2024-03-06T03:13:33;19.67;;;7.87;;
75441;SDS011;64019;48.312;14.226;2024-03-06T03:15:59;20.40;;;7.47;;
75441;SDS011;64019;48.312;14.226;2024-03-06T03:18:24;19.03;;;8.00;;
75441;SDS011;64019;48.312;14.226;2024-03-06T03:20:50;21.90;;;7.73;;
75441;SDS011;64019;48.312;14.226;2024-03-06T03:23:16;18.53;;;7.93;;
75441;SDS011;64019;48.312;14.226;2024-03-06T03:25:47;20.03;;;8.23;;
75441;SDS011;64019;48.312;14.226;2024-03-06T03:28:15;23.60;;;7.83;;
75441;SDS011;64019;48.312;14.226;2024-03-06T03:30:44;25.70;;;8.17;;
75441;SDS011;64019;48.312;14.226;2024-03-06T03:33:10;17.90;;;7.80;;
75441;SDS011;64019;48.312;14.226;2024-03-06T03:35:36;22.50;;;7.83;;
75441;SDS011;64019;48.312;14.226;2024-03-06T03:38:01;24.20;;;7.87;;
75441;SDS011;64019;48.312;14.226;2024-03-06T03:40:28;19.90;;;8.23;;
75441;SDS011;64019;48.312;14.226;2024-03-06T03:42:54;22.47;;;8.83;;
75441;SDS011;64019;48.312;14.226;2024-03-06T03:45:20;21.60;;;7.77;;
75441;SDS011;64019;48.312;14.226;2024-03-06T03:47:45;17.37;;;7.20;;
75441;SDS011;64019;48.312;14.226;2024-03-06T03:50:11;19.97;;;7.70;;
75441;SDS011;64019;48.312;14.226;2024-03-06T03:52:37;21.80;;;8.37;;
75441;SDS011;64019;48.312;14.226;2024-03-06T03:55:06;18.30;;;7.57;;
75441;SDS011;64019;48.312;14.226;2024-03-06T03:57:32;20.17;;;8.37;;
75441;SDS011;64019;48.312;14.226;2024-03-06T03:59:58;22.63;;;8.97;;
75441;SDS011;64019;48.312;14.226;2024-03-06T04:05:36;17.47;;;7.37;;
75441;SDS011;64019;48.312;14.226;2024-03-06T04:08:25;22.70;;;8.90;;
75441;SDS011;64019;48.312;14.226;2024-03-06T04:11:29;21.27;;;6.93;;
75441;SDS011;64019;48.312;14.226;2024-03-06T04:13:57;24.37;;;8.37;;
75441;SDS011;64019;48.312;14.226;2024-03-06T04:16:23;23.10;;;8.43;;
75441;SDS011;64019;48.312;14.226;2024-03-06T04:18:49;32.70;;;13.67;;
75441;SDS011;64019;48.312;14.226;2024-03-06T04:21:14;27.10;;;10.53;;
75441;SDS011;64019;48.312;14.226;2024-03-06T04:23:40;23.33;;;9.00;;
75441;SDS011;64019;48.312;14.226;2024-03-06T04:26:24;23.17;;;8.40;;
75441;SDS011;64019;48.312;14.226;2024-03-06T04:29:35;19.47;;;8.00;;
75441;SDS011;64019;48.312;14.226;2024-03-06T04:32:20;19.60;;;8.27;;
75441;SDS011;64019;48.312;14.226;2024-03-06T04:34:46;20.17;;;7.27;;
75441;SDS011;64019;48.312;14.226;2024-03-06T04:37:11;21.03;;;7.83;;
75441;SDS011;64019;48.312;14.226;2024-03-06T04:39:38;17.20;;;7.37;;
75441;SDS011;64019;48.312;14.226;2024-03-06T04:42:03;18.53;;;7.83;;
75441;SDS011;64019;48.312;14.226;2024-03-06T04:44:33;18.43;;;7.27;;
75441;SDS011;64019;48.312;14.226;2024-03-06T04:46:59;17.87;;;7.53;;
75441;SDS011;64019;48.312;14.226;2024-03-06T04:49:24;25.83;;;9.33;;
75441;SDS011;64019;48.312;14.226;2024-03-06T04:51:51;22.03;;;7.93;;
75441;SDS011;64019;48.312;14.226;2024-03-06T04:54:16;24.23;;;7.50;;
75441;SDS011;64019;48.312;14.226;2024-03-06T04:56:42;19.50;;;7.10;;
75441;SDS011;64019;48.312;14.226;2024-03-06T04:59:08;19.83;;;8.70;;
75441;SDS011;64019;48.312;14.226;2024-03-06T05:01:33;19.90;;;8.17;;
75441;SDS011;64019;48.312;14.226;2024-03-06T05:04:04;23.07;;;8.80;;
75441;SDS011;64019;48.312;14.226;2024-03-06T05:06:49;20.17;;;8.60;;
75441;SDS011;64019;48.312;14.226;2024-03-06T05:09:36;23.33;;;8.03;;
75441;SDS011;64019;48.312;14.226;2024-03-06T05:12:15;21.27;;;7.40;;
75441;SDS011;64019;48.312;14.226;2024-03-06T05:14:49;19.23;;;6.73;;
75441;SDS011;64019;48.312;14.226;2024-03-06T05:17:20;21.03;;;7.63;;
75441;SDS011;64019;48.312;14.226;2024-03-06T05:19:48;20.60;;;6.53;;
75441;SDS011;64019;48.312;14.226;2024-03-06T05:22:15;21.50;;;7.90;;
75441;SDS011;64019;48.312;14.226;2024-03-06T05:24:41;20.53;;;7.37;;
75441;SDS011;64019;48.312;14.226;2024-03-06T05:27:08;24.20;;;8.13;;
75441;SDS011;64019;48.312;14.226;2024-03-06T05:29:35;19.97;;;7.17;;
75441;SDS011;64019;48.312;14.226;2024-03-06T05:32:02;18.80;;;7.33;;
75441;SDS011;64019;48.312;14.226;2024-03-06T05:34:28;18.17;;;6.77;;
75441;SDS011;64019;48.312;14.226;2024-03-06T05:36:55;19.73;;;8.43;;
75441;SDS011;64019;48.312;14.226;2024-03-06T05:39:21;17.73;;;7.03;;
75441;SDS011;64019;48.312;14.226;2024-03-06T05:41:46;17.07;;;7.20;;
75441;SDS011;64019;48.312;14.226;2024-03-06T05:44:12;19.13;;;7.00;;
75441;SDS011;64019;48.312;14.226;2024-03-06T05:46:38;18.97;;;7.33;;
75441;SDS011;64019;48.312;14.226;2024-03-06T05:49:04;18.93;;;7.53;;
75441;SDS011;64019;48.312;14.226;2024-03-06T05:51:29;19.57;;;6.70;;
75441;SDS011;64019;48.312;14.226;2024-03-06T05:53:55;19.83;;;7.53;;
75441;SDS011;64019;48.312;14.226;2024-03-06T05:56:21;23.13;;;8.23;;
75441;SDS011;64019;48.312;14.226;2024-03-06T05:58:47;19.90;;;7.03;;
75441;SDS011;64019;48.312;14.226;2024-03-06T06:01:17;18.37;;;7.80;;
75441;SDS011;64019;48.312;14.226;2024-03-06T06:03:47;21.77;;;7.47;;
75441;SDS011;64019;48.312;14.226;2024-03-06T06:06:16;19.43;;;7.27;;
75441;SDS011;64019;48.312;14.226;2024-03-06T06:08:44;20.03;;;7.23;;
75441;SDS011;64019;48.312;14.226;2024-03-06T06:11:10;17.57;;;6.53;;
75441;SDS011;64019;48.312;14.226;2024-03-06T06:13:36;13.10;;;5.90;;
75441;SDS011;64019;48.312;14.226;2024-03-06T06:16:04;19.33;;;7.53;;
75441;SDS011;64019;48.312;14.226;2024-03-06T06:18:30;15.83;;;6.63;;
75441;SDS011;64019;48.312;14.226;2024-03-06T06:20:57;15.77;;;7.17;;
75441;SDS011;64019;48.312;14.226;2024-03-06T06:23:23;13.57;;;6.00;;
75441;SDS011;64019;48.312;14.226;2024-03-06T06:25:49;20.37;;;7.57;;
75441;SDS011;64019;48.312;14.226;2024-03-06T06:28:15;17.90;;;7.27;;
75441;SDS011;64019;48.312;14.226;2024-03-06T06:30:40;17.70;;;6.60;;
75441;SDS011;64019;48.312;14.226;2024-03-06T06:33:06;17.10;;;6.27;;
75441;SDS011;64019;48.312;14.226;2024-03-06T06:35:33;15.93;;;6.67;;
75441;SDS011;64019;48.312;14.226;2024-03-06T06:38:00;16.60;;;7.50;;
75441;SDS011;64019;48.312;14.226;2024-03-06T06:40:26;16.57;;;6.17;;
75441;SDS011;64019;48.312;14.226;2024-03-06T06:42:53;15.30;;;6.90;;
75441;SDS011;64019;48.312;14.226;2024-03-06T06:45:19;14.63;;;5.83;;
75441;SDS011;64019;48.312;14.226;2024-03-06T06:47:47;15.43;;;6.77;;
75441;SDS011;64019;48.312;14.226;2024-03-06T06:50:13;14.80;;;6.23;;
75441;SDS011;64019;48.312;14.226;2024-03-06T06:52:39;19.23;;;6.90;;
75441;SDS011;64019;48.312;14.226;2024-03-06T06:55:06;15.77;;;7.40;;
75441;SDS011;64019;48.312;14.226;2024-03-06T06:57:34;15.70;;;6.53;;
75441;SDS011;64019;48.312;14.226;2024-03-06T07:00:00;18.33;;;6.80;;
75441;SDS011;64019;48.312;14.226;2024-03-06T07:02:31;17.83;;;7.50;;
75441;SDS011;64019;48.312;14.226;2024-03-06T07:04:57;17.63;;;7.20;;
75441;SDS011;64019;48.312;14.226;2024-03-06T07:07:23;15.47;;;7.00;;
75441;SDS011;64019;48.312;14.226;2024-03-06T07:09:52;17.50;;;7.10;;
75441;SDS011;64019;48.312;14.226;2024-03-06T07:12:47;16.20;;;6.50;;
75441;SDS011;64019;48.312;14.226;2024-03-06T07:15:18;18.13;;;7.80;;
75441;SDS011;64019;48.312;14.226;2024-03-06T07:17:45;17.73;;;7.03;;
75441;SDS011;64019;48.312;14.226;2024-03-06T07:20:11;17.43;;;7.30;;
75441;SDS011;64019;48.312;14.226;2024-03-06T07:22:39;15.17;;;7.17;;
75441;SDS011;64019;48.312;14.226;2024-03-06T07:25:05;18.60;;;7.63;;
75441;SDS011;64019;48.312;14.226;2024-03-06T07:27:31;18.03;;;6.97;;
75441;SDS011;64019;48.312;14.226;2024-03-06T07:29:57;21.20;;;7.93;;
75441;SDS011;64019;48.312;14.226;2024-03-06T07:32:23;16.90;;;7.37;;
75441;SDS011;64019;48.312;14.226;2024-03-06T07:34:48;15.63;;;7.17;;
75441;SDS011;64019;48.312;14.226;2024-03-06T07:37:14;16.77;;;7.20;;
75441;SDS011;64019;48.312;14.226;2024-03-06T07:39:40;17.53;;;7.20;;
75441;SDS011;64019;48.312;14.226;2024-03-06T07:42:06;16.60;;;6.67;;
75441;SDS011;64019;48.312;14.226;2024-03-06T07:44:31;20.83;;;7.90;;
75441;SDS011;64019;48.312;14.226;2024-03-06T07:46:57;14.70;;;7.17;;
75441;SDS011;64019;48.312;14.226;2024-03-06T07:49:23;17.00;;;7.60;;
75441;SDS011;64019;48.312;14.226;2024-03-06T07:51:48;16.33;;;7.30;;
75441;SDS011;64019;48.312;14.226;2024-03-06T07:54:15;16.67;;;7.00;;
75441;SDS011;64019;48.312;14.226;2024-03-06T07:56:40;20.47;;;7.60;;
75441;SDS011;64019;48.312;14.226;2024-03-06T07:59:06;19.53;;;7.73;;
75441;SDS011;64019;48.312;14.226;2024-03-06T08:01:32;15.40;;;6.73;;
75441;SDS011;64019;48.312;14.226;2024-03-06T08:03:58;17.73;;;6.90;;
75441;SDS011;64019;48.312;14.226;2024-03-06T08:06:23;19.37;;;7.67;;
75441;SDS011;64019;48.312;14.226;2024-03-06T08:08:50;24.43;;;8.03;;
75441;SDS011;64019;48.312;14.226;2024-03-06T08:11:17;16.70;;;8.63;;
75441;SDS011;64019;48.312;14.226;2024-03-06T08:13:43;24.37;;;8.87;;
75441;SDS011;64019;48.312;14.226;2024-03-06T08:16:09;23.67;;;8.53;;
75441;SDS011;64019;48.312;14.226;2024-03-06T08:18:35;19.27;;;8.40;;
75441;SDS011;64019;48.312;14.226;2024-03-06T08:21:02;19.83;;;8.93;;
75441;SDS011;64019;48.312;14.226;2024-03-06T08:23:30;24.13;;;8.17;;
75441;SDS011;64019;48.312;14.226;2024-03-06T08:25:56;23.07;;;9.10;;
75441;SDS011;64019;48.312;14.226;2024-03-06T08:28:21;21.43;;;8.57;;
75441;SDS011;64019;48.312;14.226;2024-03-06T08:30:47;18.77;;;8.67;;
75441;SDS011;64019;48.312;14.226;2024-03-06T08:33:13;20.00;;;8.10;;
75441;SDS011;64019;48.312;14.226;2024-03-06T08:35:39;20.53;;;9.00;;
75441;SDS011;64019;48.312;14.226;2024-03-06T08:38:04;23.83;;;8.97;;
75441;SDS011;64019;48.312;14.226;2024-03-06T08:40:31;23.87;;;8.87;;
75441;SDS011;64019;48.312;14.226;2024-03-06T08:42:57;23.20;;;9.43;;
75441;SDS011;64019;48.312;14.226;2024-03-06T08:45:23;23.97;;;8.33;;
75441;SDS011;64019;48.312;14.226;2024-03-06T08:47:49;24.93;;;9.10;;
75441;SDS011;64019;48.312;14.226;2024-03-06T08:50:15;25.97;;;9.40;;
75441;SDS011;64019;48.312;14.226;2024-03-06T08:52:42;24.03;;;9.93;;
75441;SDS011;64019;48.312;14.226;2024-03-06T08:55:25;25.93;;;10.33;;
75441;SDS011;64019;48.312;14.226;2024-03-06T08:57:59;28.07;;;10.07;;
75441;SDS011;64019;48.312;14.226;2024-03-06T09:00:43;22.93;;;9.50;;
75441;SDS011;64019;48.312;14.226;2024-03-06T09:03:14;29.97;;;10.23;;
75441;SDS011;64019;48.312;14.226;2024-03-06T09:05:40;27.93;;;10.27;;
75441;SDS011;64019;48.312;14.226;2024-03-06T09:08:06;22.07;;;9.70;;
75441;SDS011;64019;48.312;14.226;2024-03-06T09:10:34;32.97;;;11.03;;
75441;SDS011;64019;48.312;14.226;2024-03-06T09:13:00;22.90;;;9.27;;
75441;SDS011;64019;48.312;14.226;2024-03-06T09:15:25;25.47;;;10.47;;
75441;SDS011;64019;48.312;14.226;2024-03-06T09:17:51;30.33;;;9.97;;
75441;SDS011;64019;48.312;14.226;2024-03-06T09:20:17;23.77;;;9.90;;
75441;SDS011;64019;48.312;14.226;2024-03-06T09:22:42;24.07;;;9.60;;
75441;SDS011;64019;48.312;14.226;2024-03-06T09:25:08;25.47;;;9.80;;
75441;SDS011;64019;48.312;14.226;2024-03-06T09:27:34;25.63;;;10.03;;
75441;SDS011;64019;48.312;14.226;2024-03-06T09:30:00;31.63;;;10.77;;
75441;SDS011;64019;48.312;14.226;2024-03-06T09:32:27;28.03;;;10.63;;
75441;SDS011;64019;48.312;14.226;2024-03-06T09:34:53;26.33;;;11.00;;
75441;SDS011;64019;48.312;14.226;2024-03-06T09:37:19;28.23;;;11.60;;
75441;SDS011;64019;48.312;14.226;2024-03-06T09:39:45;31.03;;;11.73;;
75441;SDS011;64019;48.312;14.226;2024-03-06T09:42:14;33.37;;;11.83;;
75441;SDS011;64019;48.312;14.226;2024-03-06T09:44:40;29.80;;;12.43;;
75441;SDS011;64019;48.312;14.226;2024-03-06T09:47:06;33.97;;;14.33;;
75441;SDS011;64019;48.312;14.226;2024-03-06T09:49:34;29.33;;;13.20;;
75441;SDS011;64019;48.312;14.226;2024-03-06T09:52:00;28.50;;;12.17;;
75441;SDS011;64019;48.312;14.226;2024-03-06T09:54:29;34.40;;;12.70;;
75441;SDS011;64019;48.312;14.226;2024-03-06T09:56:55;35.43;;;13.20;;
75441;SDS011;64019;48.312;14.226;2024-03-06T09:59:23;29.97;;;11.63;;
75441;SDS011;64019;48.312;14.226;2024-03-06T10:01:58;31.73;;;11.83;;
75441;SDS011;64019;48.312;14.226;2024-03-06T10:04:27;26.83;;;11.63;;
75441;SDS011;64019;48.312;14.226;2024-03-06T10:06:55;27.57;;;10.43;;
75441;SDS011;64019;48.312;14.226;2024-03-06T10:09:22;26.57;;;10.20;;
75441;SDS011;64019;48.312;14.226;2024-03-06T10:11:48;29.30;;;10.87;;
75441;SDS011;64019;48.312;14.226;2024-03-06T10:14:15;23.50;;;10.07;;
75441;SDS011;64019;48.312;14.226;2024-03-06T10:16:59;25.60;;;9.57;;
75441;SDS011;64019;48.312;14.226;2024-03-06T10:19:30;22.60;;;9.30;;
75441;SDS011;64019;48.312;14.226;2024-03-06T10:21:57;27.43;;;10.17;;
75441;SDS011;64019;48.312;14.226;2024-03-06T10:24:24;23.40;;;9.53;;
75441;SDS011;64019;48.312;14.226;2024-03-06T10:26:52;23.30;;;9.83;;
75441;SDS011;64019;48.312;14.226;2024-03-06T10:29:21;20.57;;;8.70;;
75441;SDS011;64019;48.312;14.226;2024-03-06T10:31:57;22.43;;;9.50;;
75441;SDS011;64019;48.312;14.226;2024-03-06T10:34:24;22.50;;;8.97;;
75441;SDS011;64019;48.312;14.226;2024-03-06T10:37:12;23.07;;;8.30;;
75441;SDS011;64019;48.312;14.226;2024-03-06T10:39:38;23.90;;;8.73;;
75441;SDS011;64019;48.312;14.226;2024-03-06T10:42:09;18.90;;;7.80;;
75441;SDS011;64019;48.312;14.226;2024-03-06T10:44:38;18.87;;;8.57;;
75441;SDS011;64019;48.312;14.226;2024-03-06T10:47:16;19.80;;;7.77;;
75441;SDS011;64019;48.312;14.226;2024-03-06T10:49:44;25.17;;;8.87;;
75441;SDS011;64019;48.312;14.226;2024-03-06T10:52:11;17.10;;;7.43;;
75441;SDS011;64019;48.312;14.226;2024-03-06T10:54:41;18.83;;;8.60;;
75441;SDS011;64019;48.312;14.226;2024-03-06T10:57:09;21.73;;;9.07;;
75441;SDS011;64019;48.312;14.226;2024-03-06T10:59:36;21.00;;;8.90;;
75441;SDS011;64019;48.312;14.226;2024-03-06T11:02:01;17.73;;;7.93;;
75441;SDS011;64019;48.312;14.226;2024-03-06T11:04:28;16.57;;;7.73;;
75441;SDS011;64019;48.312;14.226;2024-03-06T11:06:56;20.07;;;9.27;;
75441;SDS011;64019;48.312;14.226;2024-03-06T11:09:24;20.53;;;8.37;;
75441;SDS011;64019;48.312;14.226;2024-03-06T11:11:51;23.07;;;9.17;;
75441;SDS011;64019;48.312;14.226;2024-03-06T11:14:18;17.47;;;7.97;;
75441;SDS011;64019;48.312;14.226;2024-03-06T11:17:02;16.80;;;7.40;;
75441;SDS011;64019;48.312;14.226;2024-03-06T11:20:07;22.33;;;8.93;;
75441;SDS011;64019;48.312;14.226;2024-03-06T11:28:27;20.67;;;8.13;;
75441;SDS011;64019;48.312;14.226;2024-03-06T11:31:01;17.97;;;8.30;;
75441;SDS011;64019;48.312;14.226;2024-03-06T11:33:38;20.47;;;8.50;;
75441;SDS011;64019;48.312;14.226;2024-03-06T11:38:50;17.60;;;8.13;;
75441;SDS011;64019;48.312;14.226;2024-03-06T11:41:18;19.30;;;8.30;;
75441;SDS011;64019;48.312;14.226;2024-03-06T11:43:48;15.53;;;7.37;;
75441;SDS011;64019;48.312;14.226;2024-03-06T11:46:18;18.03;;;7.70;;
75441;SDS011;64019;48.312;14.226;2024-03-06T11:48:51;16.03;;;8.00;;
75441;SDS011;64019;48.312;14.226;2024-03-06T11:51:18;19.83;;;8.67;;
75441;SDS011;64019;48.312;14.226;2024-03-06T11:53:44;20.57;;;8.23;;
75441;SDS011;64019;48.312;14.226;2024-03-06T11:56:11;15.63;;;7.27;;
75441;SDS011;64019;48.312;14.226;2024-03-06T11:58:36;19.67;;;7.63;;
75441;SDS011;64019;48.312;14.226;2024-03-06T12:01:03;20.87;;;7.10;;
75441;SDS011;64019;48.312;14.226;2024-03-06T12:03:29;15.10;;;7.57;;
75441;SDS011;64019;48.312;14.226;2024-03-06T12:05:55;21.23;;;9.37;;
75441;SDS011;64019;48.312;14.226;2024-03-06T12:08:21;20.07;;;8.43;;
75441;SDS011;64019;48.312;14.226;2024-03-06T12:10:47;22.77;;;8.37;;
75441;SDS011;64019;48.312;14.226;2024-03-06T12:13:12;16.20;;;7.37;;
75441;SDS011;64019;48.312;14.226;2024-03-06T12:15:38;20.70;;;8.67;;
75441;SDS011;64019;48.312;14.226;2024-03-06T12:18:08;17.50;;;8.27;;
75441;SDS011;64019;48.312;14.226;2024-03-06T12:20:33;18.10;;;7.63;;
75441;SDS011;64019;48.312;14.226;2024-03-06T12:22:59;18.07;;;8.37;;
75441;SDS011;64019;48.312;14.226;2024-03-06T12:25:25;18.07;;;8.10;;
75441;SDS011;64019;48.312;14.226;2024-03-06T12:27:53;18.93;;;7.73;;
75441;SDS011;64019;48.312;14.226;2024-03-06T12:30:20;16.63;;;7.97;;
75441;SDS011;64019;48.312;14.226;2024-03-06T12:33:00;17.23;;;7.73;;
75441;SDS011;64019;48.312;14.226;2024-03-06T12:35:29;20.27;;;7.43;;
75441;SDS011;64019;48.312;14.226;2024-03-06T12:37:56;16.33;;;7.67;;
75441;SDS011;64019;48.312;14.226;2024-03-06T12:40:22;15.63;;;7.87;;
75441;SDS011;64019;48.312;14.226;2024-03-06T12:42:48;14.03;;;7.50;;
75441;SDS011;64019;48.312;14.226;2024-03-06T12:45:15;22.00;;;8.70;;
75441;SDS011;64019;48.312;14.226;2024-03-06T12:47:42;18.80;;;8.17;;
75441;SDS011;64019;48.312;14.226;2024-03-06T12:50:08;17.33;;;7.87;;
75441;SDS011;64019;48.312;14.226;2024-03-06T12:52:36;18.47;;;8.23;;
75441;SDS011;64019;48.312;14.226;2024-03-06T12:55:02;16.03;;;7.80;;
75441;SDS011;64019;48.312;14.226;2024-03-06T12:57:30;20.57;;;8.70;;
75441;SDS011;64019;48.312;14.226;2024-03-06T12:59:56;19.70;;;8.60;;
75441;SDS011;64019;48.312;14.226;2024-03-06T13:02:22;16.73;;;7.77;;
75441;SDS011;64019;48.312;14.226;2024-03-06T13:04:48;19.57;;;8.43;;
75441;SDS011;64019;48.312;14.226;2024-03-06T13:07:14;20.20;;;8.57;;
75441;SDS011;64019;48.312;14.226;2024-03-06T13:09:39;22.03;;;9.80;;
75441;SDS011;64019;48.312;14.226;2024-03-06T13:12:05;17.83;;;8.77;;
75441;SDS011;64019;48.312;14.226;2024-03-06T13:14:31;15.20;;;7.77;;
75441;SDS011;64019;48.312;14.226;2024-03-06T13:16:57;18.40;;;9.40;;
75441;SDS011;64019;48.312;14.226;2024-03-06T13:19:24;19.03;;;8.40;;
75441;SDS011;64019;48.312;14.226;2024-03-06T13:21:50;17.60;;;8.30;;
75441;SDS011;64019;48.312;14.226;2024-03-06T13:24:15;20.00;;;8.40;;
75441;SDS011;64019;48.312;14.226;2024-03-06T13:26:41;21.73;;;8.20;;
75441;SDS011;64019;48.312;14.226;2024-03-06T13:29:07;19.93;;;8.60;;
75441;SDS011;64019;48.312;14.226;2024-03-06T13:31:32;20.53;;;8.80;;
75441;SDS011;64019;48.312;14.226;2024-03-06T13:34:02;19.57;;;8.67;;
75441;SDS011;64019;48.312;14.226;2024-03-06T13:36:28;13.30;;;8.17;;
75441;SDS011;64019;48.312;14.226;2024-03-06T13:38:54;19.97;;;8.47;;
75441;SDS011;64019;48.312;14.226;2024-03-06T13:41:21;17.83;;;8.90;;
75441;SDS011;64019;48.312;14.226;2024-03-06T13:43:46;17.00;;;8.40;;
75441;SDS011;64019;48.312;14.226;2024-03-06T13:46:12;20.37;;;8.23;;
75441;SDS011;64019;48.312;14.226;2024-03-06T13:48:38;17.50;;;8.73;;
75441;SDS011;64019;48.312;14.226;2024-03-06T13:51:04;21.60;;;9.23;;
75441;SDS011;64019;48.312;14.226;2024-03-06T13:53:30;18.33;;;8.13;;
75441;SDS011;64019;48.312;14.226;2024-03-06T13:55:56;16.47;;;8.30;;
75441;SDS011;64019;48.312;14.226;2024-03-06T13:58:22;19.77;;;8.93;;
75441;SDS011;64019;48.312;14.226;2024-03-06T14:00:48;19.83;;;8.90;;
75441;SDS011;64019;48.312;14.226;2024-03-06T14:03:13;20.47;;;8.67;;
75441;SDS011;64019;48.312;14.226;2024-03-06T14:05:39;22.23;;;8.80;;
75441;SDS011;64019;48.312;14.226;2024-03-06T14:08:05;26.87;;;9.37;;
75441;SDS011;64019;48.312;14.226;2024-03-06T14:10:32;22.23;;;9.03;;
75441;SDS011;64019;48.312;14.226;2024-03-06T14:12:59;19.50;;;9.47;;
75441;SDS011;64019;48.312;14.226;2024-03-06T14:15:25;21.90;;;9.10;;
75441;SDS011;64019;48.312;14.226;2024-03-06T14:17:51;20.60;;;8.83;;
75441;SDS011;64019;48.312;14.226;2024-03-06T14:20:19;20.87;;;8.40;;
75441;SDS011;64019;48.312;14.226;2024-03-06T14:22:45;18.57;;;7.97;;
75441;SDS011;64019;48.312;14.226;2024-03-06T14:25:11;21.83;;;8.43;;
75441;SDS011;64019;48.312;14.226;2024-03-06T14:27:37;19.63;;;8.63;;
75441;SDS011;64019;48.312;14.226;2024-03-06T14:30:03;13.23;;;7.73;;
75441;SDS011;64019;48.312;14.226;2024-03-06T14:32:32;17.40;;;7.97;;
75441;SDS011;64019;48.312;14.226;2024-03-06T14:34:58;15.17;;;7.50;;